createdAt,value
2022-07-25T00:00:12.530Z,20.70
2022-07-25T00:02:42.896Z,20.70
2022-07-25T00:05:13.555Z,20.70
2022-07-25T00:07:42.299Z,20.70
2022-07-25T00:10:12.319Z,20.70
2022-07-25T00:12:41.412Z,20.70
2022-07-25T00:15:11.826Z,20.60
2022-07-25T00:17:42.368Z,20.60
2022-07-25T00:20:12.485Z,20.60
2022-07-25T00:22:41.159Z,20.60
2022-07-25T00:25:10.827Z,20.70
2022-07-25T00:27:39.768Z,20.70
2022-07-25T00:30:10.528Z,20.70
2022-07-25T00:32:39.339Z,20.60
2022-07-25T00:35:10.219Z,20.60
2022-07-25T00:37:38.982Z,20.60
2022-07-25T00:40:09.284Z,20.50
2022-07-25T00:42:38.153Z,20.50
2022-07-25T00:45:08.301Z,20.60
2022-07-25T00:47:38.162Z,20.50
2022-07-25T00:50:09.916Z,20.50
2022-07-25T00:52:39.063Z,20.40
2022-07-25T00:55:09.390Z,20.40
2022-07-25T00:57:38.184Z,20.40
2022-07-25T01:00:10.746Z,20.40
2022-07-25T01:02:39.744Z,20.30
2022-07-25T01:05:11.826Z,20.30
2022-07-25T01:07:41.425Z,20.30
2022-07-25T01:10:11.541Z,20.30
2022-07-25T01:12:50.402Z,20.30
2022-07-25T01:15:20.175Z,20.30
2022-07-25T01:17:49.573Z,20.30
2022-07-25T01:20:20.995Z,20.20
2022-07-25T01:22:50.295Z,20.10
2022-07-25T01:25:19.678Z,20.10
2022-07-25T01:27:55.044Z,20.10
2022-07-25T01:30:25.862Z,20.10
2022-07-25T01:32:55.178Z,20.00
2022-07-25T01:35:25.841Z,20.00
2022-07-25T01:37:54.862Z,20.00
2022-07-25T01:40:24.828Z,20.10
2022-07-25T01:42:53.855Z,20.00
2022-07-25T01:45:22.837Z,20.00
2022-07-25T01:47:51.854Z,19.90
2022-07-25T01:50:21.283Z,19.90
2022-07-25T01:52:52.068Z,19.90
2022-07-25T01:55:21.206Z,19.90
2022-07-25T01:57:50.376Z,19.90
2022-07-25T02:00:20.033Z,19.80
2022-07-25T02:02:49.124Z,19.80
2022-07-25T02:05:18.362Z,19.70
2022-07-25T02:07:47.338Z,19.70
2022-07-25T02:10:17.838Z,19.80
2022-07-25T02:12:46.896Z,19.70
2022-07-25T02:15:15.867Z,19.70
2022-07-25T02:17:45.118Z,19.70
2022-07-25T02:20:14.419Z,19.60
2022-07-25T02:22:43.544Z,19.50
2022-07-25T02:25:12.734Z,19.50
2022-07-25T02:27:43.091Z,19.50
2022-07-25T02:30:13.297Z,19.50
2022-07-25T02:32:42.323Z,19.50
2022-07-25T02:35:13.194Z,19.40
2022-07-25T02:37:43.207Z,19.40
2022-07-25T02:40:13.175Z,19.40
2022-07-25T02:42:43.788Z,19.40
2022-07-25T02:45:14.051Z,19.30
2022-07-25T02:47:43.137Z,19.40
2022-07-25T02:50:14.994Z,19.50
2022-07-25T02:52:44.239Z,19.40
2022-07-25T02:55:13.932Z,19.50
2022-07-25T02:57:44.385Z,19.60
2022-07-25T03:00:16.774Z,19.50
2022-07-25T03:02:45.860Z,19.50
2022-07-25T03:05:17.631Z,19.50
2022-07-25T03:07:47.640Z,19.50
2022-07-25T03:10:17.266Z,19.40
2022-07-25T03:12:47.767Z,19.50
2022-07-25T03:15:16.803Z,19.40
2022-07-25T03:17:45.897Z,19.40
2022-07-25T03:20:15.096Z,19.30
2022-07-25T03:22:44.400Z,19.20
2022-07-25T03:25:15.733Z,19.30
2022-07-25T03:27:52.329Z,19.40
2022-07-25T03:30:21.988Z,19.50
2022-07-25T03:32:51.085Z,19.40
2022-07-25T03:35:20.220Z,19.50
2022-07-25T03:37:49.628Z,19.50
2022-07-25T03:40:20.769Z,19.50
2022-07-25T03:42:51.352Z,19.60
2022-07-25T03:45:20.309Z,19.70
2022-07-25T03:47:49.218Z,19.80
2022-07-25T03:50:18.534Z,19.80
2022-07-25T03:52:47.557Z,19.80
2022-07-25T03:55:16.623Z,20.00
2022-07-25T03:57:45.830Z,20.00
2022-07-25T04:00:17.732Z,20.10
2022-07-25T04:02:47.064Z,20.20
2022-07-25T04:05:16.080Z,20.30
2022-07-25T04:07:45.046Z,20.70
2022-07-25T04:10:14.142Z,21.10
2022-07-25T04:12:43.064Z,21.50
2022-07-25T04:15:12.745Z,22.00
2022-07-25T04:17:43.196Z,22.50
2022-07-25T04:20:13.858Z,22.80
2022-07-25T04:22:46.739Z,23.10
2022-07-25T04:25:18.043Z,23.00
2022-07-25T04:27:47.114Z,22.90
2022-07-25T04:30:23.815Z,23.20
2022-07-25T04:32:56.643Z,23.60
2022-07-25T04:35:25.732Z,24.00
2022-07-25T04:37:54.674Z,24.70
2022-07-25T04:40:23.866Z,25.10
2022-07-25T04:42:52.812Z,25.40
2022-07-25T04:45:21.925Z,25.90
2022-07-25T04:47:51.157Z,25.80
2022-07-25T04:50:24.794Z,25.80
2022-07-25T04:52:54.928Z,25.90
2022-07-25T04:55:24.397Z,25.80
2022-07-25T04:57:53.434Z,26.00
2022-07-25T05:00:23.962Z,25.90
2022-07-25T05:02:53.316Z,26.10
2022-07-25T05:05:24.072Z,26.30
2022-07-25T05:07:58.186Z,26.50
2022-07-25T05:10:28.677Z,27.10
2022-07-25T05:12:58.300Z,26.80
2022-07-25T05:15:27.410Z,26.90
2022-07-25T05:17:56.390Z,27.00
2022-07-25T05:20:27.629Z,27.30
2022-07-25T05:22:56.625Z,27.30
2022-07-25T05:25:25.901Z,27.40
2022-07-25T05:27:57.526Z,27.50
2022-07-25T05:30:27.306Z,27.80
2022-07-25T05:32:56.609Z,27.90
2022-07-25T05:35:27.085Z,28.20
2022-07-25T05:37:56.444Z,28.30
2022-07-25T05:40:25.537Z,27.50
2022-07-25T05:42:57.085Z,26.60
2022-07-25T05:45:28.510Z,25.50
2022-07-25T05:47:57.532Z,24.80
2022-07-25T05:50:27.898Z,24.40
2022-07-25T05:52:57.179Z,24.10
2022-07-25T05:55:26.090Z,23.80
2022-07-25T05:57:55.015Z,23.90
2022-07-25T06:00:24.518Z,23.70
2022-07-25T06:02:54.037Z,23.70
2022-07-25T06:05:23.252Z,23.70
2022-07-25T06:07:53.697Z,23.90
2022-07-25T06:10:23.613Z,23.90
2022-07-25T06:12:52.605Z,24.00
2022-07-25T06:15:22.771Z,24.10
2022-07-25T06:17:56.253Z,24.20
2022-07-25T06:20:25.822Z,24.30
2022-07-25T06:22:56.184Z,24.40
2022-07-25T06:25:25.588Z,24.50
2022-07-25T06:27:54.581Z,24.60
2022-07-25T06:30:23.735Z,24.70
2022-07-25T06:32:52.838Z,24.90
2022-07-25T06:35:22.001Z,25.00
2022-07-25T06:37:51.391Z,25.10
2022-07-25T06:40:21.848Z,25.10
2022-07-25T06:42:51.006Z,25.30
2022-07-25T06:45:20.020Z,25.40
2022-07-25T06:47:49.343Z,25.50
2022-07-25T06:50:21.410Z,25.70
2022-07-25T06:52:50.933Z,25.80
2022-07-25T06:55:21.276Z,26.00
2022-07-25T06:57:50.406Z,26.10
2022-07-25T07:00:19.880Z,26.10
2022-07-25T07:02:58.712Z,26.10
2022-07-25T07:05:31.204Z,26.30
2022-07-25T07:08:00.992Z,26.40
2022-07-25T07:10:32.309Z,26.40
2022-07-25T07:13:10.814Z,26.60
2022-07-25T07:15:41.219Z,26.80
2022-07-25T07:18:10.276Z,26.90
2022-07-25T07:20:39.389Z,27.10
2022-07-25T07:23:08.439Z,27.20
2022-07-25T07:25:39.670Z,27.30
2022-07-25T07:28:09.284Z,27.40
2022-07-25T07:31:13.331Z,27.60
2022-07-25T07:33:27.637Z,27.80
2022-07-25T07:35:57.338Z,27.90
2022-07-25T07:38:27.230Z,27.90
2022-07-25T07:40:57.840Z,28.00
2022-07-25T07:43:30.077Z,28.00
2022-07-25T07:46:01.392Z,28.10
2022-07-25T07:48:32.298Z,28.10
2022-07-25T07:51:03.459Z,28.40
2022-07-25T07:53:51.381Z,28.50
2022-07-25T07:56:22.177Z,28.60
2022-07-25T07:58:51.648Z,28.60
2022-07-25T08:01:20.703Z,28.60
2022-07-25T08:03:49.801Z,28.80
2022-07-25T08:06:19.159Z,28.90
2022-07-25T08:08:48.307Z,28.90
2022-07-25T08:11:17.366Z,29.00
2022-07-25T08:13:49.893Z,29.00
2022-07-25T08:16:19.094Z,29.20
2022-07-25T08:18:48.276Z,29.40
2022-07-25T08:21:17.647Z,29.50
2022-07-25T08:23:47.342Z,29.60
2022-07-25T08:26:16.537Z,29.80
2022-07-25T08:28:46.497Z,30.00
2022-07-25T08:31:17.917Z,30.10
2022-07-25T08:33:47.118Z,30.20
2022-07-25T08:36:16.261Z,30.20
2022-07-25T08:38:45.376Z,30.30
2022-07-25T08:41:14.350Z,30.20
2022-07-25T08:43:47.817Z,30.30
2022-07-25T08:46:19.856Z,30.30
2022-07-25T08:48:50.074Z,30.50
2022-07-25T08:51:20.364Z,30.50
2022-07-25T08:53:49.850Z,30.50
2022-07-25T08:56:21.200Z,30.40
2022-07-25T08:58:51.063Z,30.40
2022-07-25T09:01:21.460Z,30.50
2022-07-25T09:03:50.792Z,30.60
2022-07-25T09:06:23.286Z,30.70
2022-07-25T09:08:55.106Z,30.90
2022-07-25T09:11:35.158Z,31.00
2022-07-25T09:14:08.339Z,31.10
2022-07-25T09:16:44.225Z,31.10
2022-07-25T09:19:17.528Z,31.30
2022-07-25T09:22:00.021Z,31.50
2022-07-25T09:24:30.927Z,31.60
2022-07-25T09:27:03.526Z,31.50
2022-07-25T09:29:36.183Z,31.50
2022-07-25T09:32:19.112Z,31.50
2022-07-25T09:34:50.823Z,31.70
2022-07-25T09:37:26.459Z,32.00
2022-07-25T09:39:55.767Z,32.10
2022-07-25T09:42:28.540Z,32.10
2022-07-25T09:45:10.106Z,32.00
2022-07-25T09:47:53.171Z,32.20
2022-07-25T09:50:24.661Z,32.40
2022-07-25T09:52:55.828Z,32.30
2022-07-25T09:55:25.725Z,32.40
2022-07-25T09:57:54.673Z,32.40
2022-07-25T10:00:26.119Z,32.50
2022-07-25T10:03:18.063Z,32.70
2022-07-25T10:06:10.321Z,32.90
2022-07-25T10:08:41.708Z,32.80
2022-07-25T10:11:23.230Z,32.90
2022-07-25T10:13:53.241Z,33.00
2022-07-25T10:16:25.517Z,33.20
2022-07-25T10:18:58.397Z,33.50
2022-07-25T10:21:29.393Z,33.60
2022-07-25T10:24:05.230Z,33.70
2022-07-25T10:26:38.773Z,33.50
2022-07-25T10:29:11.966Z,33.60
2022-07-25T10:31:51.103Z,33.60
2022-07-25T10:34:31.939Z,33.70
2022-07-25T10:37:12.380Z,33.80
2022-07-25T10:39:44.794Z,33.70
2022-07-25T10:42:17.009Z,33.80
2022-07-25T10:44:49.548Z,33.80
2022-07-25T10:47:19.966Z,34.10
2022-07-25T10:50:16.959Z,34.40
2022-07-25T10:52:47.752Z,34.40
2022-07-25T10:55:26.258Z,34.50
2022-07-25T10:58:17.166Z,34.40
2022-07-25T11:00:47.109Z,34.30
2022-07-25T11:03:18.517Z,34.20
2022-07-25T11:05:51.855Z,34.10
2022-07-25T11:08:31.392Z,34.00
2022-07-25T11:11:00.719Z,34.10
2022-07-25T11:13:29.902Z,34.30
2022-07-25T11:16:00.259Z,34.50
2022-07-25T11:18:38.129Z,34.80
2022-07-25T11:21:11.651Z,35.00
2022-07-25T11:23:42.623Z,34.90
2022-07-25T11:26:15.038Z,34.70
2022-07-25T11:28:47.023Z,34.90
2022-07-25T11:31:17.997Z,35.00
2022-07-25T11:33:50.824Z,35.10
2022-07-25T11:36:21.515Z,35.40
2022-07-25T11:38:51.573Z,35.50
2022-07-25T11:41:31.062Z,35.60
2022-07-25T11:44:00.129Z,35.60
2022-07-25T11:46:29.407Z,35.80
2022-07-25T11:49:09.154Z,36.20
2022-07-25T11:51:41.915Z,36.10
2022-07-25T11:54:13.504Z,35.70
2022-07-25T11:56:44.398Z,35.60
2022-07-25T11:59:13.513Z,35.60
2022-07-25T12:01:45.133Z,35.80
2022-07-25T12:04:16.964Z,35.90
2022-07-25T12:06:50.994Z,35.90
2022-07-25T12:09:22.670Z,36.00
2022-07-25T12:11:52.846Z,36.30
2022-07-25T12:14:21.944Z,36.10
2022-07-25T12:16:51.115Z,36.00
2022-07-25T12:19:23.448Z,36.00
2022-07-25T12:21:54.008Z,35.90
2022-07-25T12:24:23.725Z,36.00
2022-07-25T12:26:52.870Z,35.90
2022-07-25T12:29:22.033Z,35.80
2022-07-25T12:31:51.158Z,35.80
2022-07-25T12:34:20.066Z,35.80
2022-07-25T12:36:49.177Z,36.00
2022-07-25T12:39:19.735Z,36.10
2022-07-25T12:41:48.698Z,36.30
2022-07-25T12:44:17.633Z,36.40
2022-07-25T12:46:49.452Z,36.40
2022-07-25T12:49:19.114Z,36.50
2022-07-25T12:51:49.282Z,36.70
2022-07-25T12:54:22.616Z,36.90
2022-07-25T12:56:52.076Z,36.80
2022-07-25T12:59:21.400Z,36.90
2022-07-25T13:01:50.970Z,37.00
2022-07-25T13:04:20.110Z,37.20
2022-07-25T13:06:49.239Z,37.10
2022-07-25T13:09:19.929Z,36.90
2022-07-25T13:11:49.198Z,37.00
2022-07-25T13:14:18.425Z,37.30
2022-07-25T13:16:48.650Z,37.30
2022-07-25T13:19:18.582Z,37.30
2022-07-25T13:21:47.756Z,37.10
2022-07-25T13:24:18.847Z,37.00
2022-07-25T13:26:48.283Z,36.70
2022-07-25T13:29:17.251Z,36.50
2022-07-25T13:31:49.501Z,36.60
2022-07-25T13:34:19.025Z,36.70
2022-07-25T13:36:49.406Z,36.70
2022-07-25T13:39:22.394Z,36.70
2022-07-25T13:41:51.678Z,36.50
2022-07-25T13:44:20.709Z,36.30
2022-07-25T13:46:50.509Z,36.20
2022-07-25T13:49:19.874Z,36.40
2022-07-25T13:51:48.965Z,36.70
2022-07-25T13:54:19.791Z,36.80
2022-07-25T13:56:48.830Z,36.90
2022-07-25T13:59:21.551Z,37.00
2022-07-25T14:01:51.633Z,37.20
2022-07-25T14:04:20.776Z,37.10
2022-07-25T14:06:52.355Z,36.80
2022-07-25T14:09:24.078Z,36.80
2022-07-25T14:11:53.592Z,36.80
2022-07-25T14:14:22.521Z,36.70
2022-07-25T14:16:51.641Z,36.60
2022-07-25T14:19:21.079Z,36.60
2022-07-25T14:21:50.284Z,36.50
2022-07-25T14:24:19.354Z,36.50
2022-07-25T14:26:50.745Z,36.60
2022-07-25T14:29:20.201Z,36.80
2022-07-25T14:31:50.415Z,36.80
2022-07-25T14:34:19.509Z,36.80
2022-07-25T14:36:48.679Z,36.60
2022-07-25T14:39:18.579Z,36.30
2022-07-25T14:41:49.588Z,35.90
2022-07-25T14:44:18.899Z,35.80
2022-07-25T14:46:50.006Z,35.90
2022-07-25T14:49:19.528Z,35.70
2022-07-25T14:51:48.673Z,35.60
2022-07-25T14:54:18.709Z,35.40
2022-07-25T14:56:49.575Z,35.40
2022-07-25T14:59:18.915Z,35.30
2022-07-25T15:01:47.846Z,35.20
2022-07-25T15:04:19.941Z,35.00
2022-07-25T15:06:49.753Z,35.00
2022-07-25T15:09:19.915Z,34.80
2022-07-25T15:11:51.170Z,34.60
2022-07-25T15:14:20.531Z,34.60
2022-07-25T15:16:50.459Z,34.60
2022-07-25T15:19:20.582Z,34.60
2022-07-25T15:21:49.729Z,34.70
2022-07-25T15:24:18.985Z,34.80
2022-07-25T15:26:49.534Z,35.00
2022-07-25T15:29:20.791Z,35.30
2022-07-25T15:31:50.481Z,35.50
2022-07-25T15:34:19.428Z,35.50
2022-07-25T15:36:48.780Z,35.60
2022-07-25T15:39:19.617Z,35.60
2022-07-25T15:41:50.231Z,35.60
2022-07-25T15:44:19.325Z,35.60
2022-07-25T15:46:48.541Z,35.50
2022-07-25T15:49:17.704Z,35.60
2022-07-25T15:51:46.878Z,35.80
2022-07-25T15:54:16.448Z,36.10
2022-07-25T15:56:45.442Z,36.30
2022-07-25T15:59:16.529Z,36.10
2022-07-25T16:01:45.615Z,36.10
2022-07-25T16:04:14.888Z,35.90
2022-07-25T16:06:44.602Z,35.80
2022-07-25T16:09:13.701Z,35.80
2022-07-25T16:11:42.986Z,35.60
2022-07-25T16:14:12.331Z,35.40
2022-07-25T16:16:44.523Z,35.20
2022-07-25T16:19:13.962Z,35.10
2022-07-25T16:21:43.106Z,34.90
2022-07-25T16:24:12.239Z,34.80
2022-07-25T16:26:41.204Z,34.50
2022-07-25T16:29:10.560Z,34.30
2022-07-25T16:31:42.795Z,34.20
2022-07-25T16:34:11.808Z,34.00
2022-07-25T16:36:40.750Z,33.80
2022-07-25T16:39:10.078Z,33.70
2022-07-25T16:41:39.675Z,33.60
2022-07-25T16:44:08.602Z,33.50
2022-07-25T16:46:37.970Z,33.40
2022-07-25T16:49:08.891Z,33.30
2022-07-25T16:51:38.285Z,33.30
2022-07-25T16:54:07.807Z,33.30
2022-07-25T16:56:37.799Z,32.20
2022-07-25T16:59:07.937Z,31.40
2022-07-25T17:01:37.929Z,29.80
2022-07-25T17:04:08.457Z,28.40
2022-07-25T17:06:38.761Z,27.30
2022-07-25T17:09:08.208Z,26.60
2022-07-25T17:11:38.023Z,26.20
2022-07-25T17:14:06.997Z,26.00
2022-07-25T17:16:36.208Z,25.90
2022-07-25T17:19:05.898Z,25.90
2022-07-25T17:21:36.918Z,25.90
2022-07-25T17:24:06.851Z,25.90
2022-07-25T17:26:37.428Z,25.90
2022-07-25T17:29:09.627Z,25.90
2022-07-25T17:31:39.014Z,25.70
2022-07-25T17:34:08.487Z,25.60
2022-07-25T17:36:39.277Z,25.50
2022-07-25T17:39:09.076Z,25.50
2022-07-25T17:41:38.331Z,25.30
2022-07-25T17:44:11.651Z,25.20
2022-07-25T17:46:41.202Z,25.10
2022-07-25T17:49:10.879Z,25.10
2022-07-25T17:51:41.371Z,25.00
2022-07-25T17:54:10.884Z,25.00
2022-07-25T17:56:40.182Z,25.00
2022-07-25T17:59:09.928Z,25.00
2022-07-25T18:01:40.134Z,25.00
2022-07-25T18:04:09.774Z,25.10
2022-07-25T18:06:40.431Z,25.10
2022-07-25T18:09:10.100Z,25.20
2022-07-25T18:11:40.735Z,25.30
2022-07-25T18:14:10.142Z,25.40
2022-07-25T18:16:41.533Z,25.50
2022-07-25T18:19:10.624Z,25.50
2022-07-25T18:21:41.039Z,25.70
2022-07-25T18:24:10.798Z,25.80
2022-07-25T18:26:41.486Z,26.00
2022-07-25T18:29:10.957Z,26.10
2022-07-25T18:31:40.265Z,26.10
2022-07-25T18:34:09.962Z,26.10
2022-07-25T18:36:42.348Z,26.10
2022-07-25T18:39:12.430Z,26.00
2022-07-25T18:41:41.939Z,25.90
2022-07-25T18:44:11.618Z,25.90
2022-07-25T18:46:41.073Z,25.80
2022-07-25T18:49:10.286Z,25.80
2022-07-25T18:51:41.373Z,25.70
2022-07-25T18:54:10.874Z,25.70
2022-07-25T18:56:40.616Z,25.70
2022-07-25T18:59:10.351Z,25.70
2022-07-25T19:01:41.384Z,25.50
2022-07-25T19:04:13.093Z,25.40
2022-07-25T19:06:44.283Z,25.30
2022-07-25T19:09:13.748Z,25.20
2022-07-25T19:11:43.045Z,25.20
2022-07-25T19:14:12.365Z,25.30
2022-07-25T19:16:41.784Z,25.20
2022-07-25T19:19:11.040Z,25.20
2022-07-25T19:21:40.866Z,25.10
2022-07-25T19:24:11.740Z,25.20
2022-07-25T19:26:41.757Z,25.20
2022-07-25T19:29:12.157Z,25.10
2022-07-25T19:31:41.598Z,25.00
2022-07-25T19:34:11.429Z,25.00
2022-07-25T19:36:43.852Z,25.00
2022-07-25T19:39:15.143Z,25.00
2022-07-25T19:41:47.126Z,25.00
2022-07-25T19:44:16.354Z,24.90
2022-07-25T19:46:45.939Z,24.90
2022-07-25T19:49:15.250Z,25.10
2022-07-25T19:51:45.936Z,25.10
2022-07-25T19:54:19.717Z,25.10
2022-07-25T19:56:48.742Z,25.00
2022-07-25T19:59:17.786Z,25.00
2022-07-25T20:01:50.307Z,24.90
2022-07-25T20:04:19.797Z,24.90
2022-07-25T20:06:50.703Z,24.90
2022-07-25T20:09:21.257Z,24.90
2022-07-25T20:11:50.283Z,24.80
2022-07-25T20:14:19.265Z,24.90
2022-07-25T20:16:48.543Z,24.80
2022-07-25T20:19:20.181Z,24.70
2022-07-25T20:21:49.693Z,24.60
2022-07-25T20:24:21.967Z,24.60
2022-07-25T20:26:51.481Z,24.50
2022-07-25T20:29:20.468Z,24.40
2022-07-25T20:31:50.419Z,24.30
2022-07-25T20:34:19.813Z,24.20
2022-07-25T20:36:49.135Z,24.10
2022-07-25T20:39:18.314Z,24.00
2022-07-25T20:41:49.019Z,23.90
2022-07-25T20:44:18.104Z,23.80
2022-07-25T20:46:47.065Z,23.70
2022-07-25T20:49:16.635Z,23.70
2022-07-25T20:51:47.879Z,23.50
2022-07-25T20:54:19.412Z,23.40
2022-07-25T20:56:50.135Z,23.20
2022-07-25T20:59:21.508Z,23.10
2022-07-25T21:01:50.818Z,22.90
2022-07-25T21:04:21.708Z,22.70
2022-07-25T21:06:50.695Z,22.60
2022-07-25T21:09:20.357Z,22.50
2022-07-25T21:11:50.839Z,22.50
2022-07-25T21:14:20.271Z,22.40
2022-07-25T21:16:49.685Z,22.30
2022-07-25T21:19:19.558Z,22.20
2022-07-25T21:21:49.276Z,22.10
2022-07-25T21:24:19.870Z,22.10
2022-07-25T21:26:51.459Z,22.00
2022-07-25T21:29:20.498Z,22.00
2022-07-25T21:31:49.724Z,22.00
2022-07-25T21:34:18.854Z,22.00
2022-07-25T21:36:49.302Z,21.90
2022-07-25T21:39:18.347Z,21.90
2022-07-25T21:41:47.491Z,21.90
2022-07-25T21:44:25.710Z,21.90
2022-07-25T21:46:55.225Z,21.80
2022-07-25T21:49:42.660Z,21.70
2022-07-25T21:52:13.553Z,21.80
2022-07-25T21:54:43.690Z,21.80
2022-07-25T21:57:14.294Z,21.90
2022-07-25T21:59:45.989Z,21.90
2022-07-25T22:02:15.643Z,21.70
2022-07-25T22:04:44.633Z,21.40
2022-07-25T22:07:16.811Z,21.10
2022-07-25T22:09:46.460Z,20.80
2022-07-25T22:12:16.538Z,20.50
2022-07-25T22:14:47.193Z,20.40
2022-07-25T22:17:16.175Z,20.20
2022-07-25T22:19:45.516Z,20.10
2022-07-25T22:22:14.711Z,20.00
2022-07-25T22:24:46.579Z,19.90
2022-07-25T22:27:15.899Z,19.80
2022-07-25T22:29:46.336Z,19.80
2022-07-25T22:32:15.345Z,19.80
2022-07-25T22:34:44.410Z,19.70
2022-07-25T22:37:13.698Z,19.80
2022-07-25T22:39:42.746Z,19.90
2022-07-25T22:42:11.773Z,19.80
2022-07-25T22:44:46.770Z,19.90
2022-07-25T22:47:16.169Z,19.90
2022-07-25T22:49:45.143Z,19.90
2022-07-25T22:52:14.168Z,19.90
2022-07-25T22:54:43.645Z,19.90
2022-07-25T22:57:12.582Z,19.90
2022-07-25T22:59:41.917Z,19.90
2022-07-25T23:02:12.242Z,19.90
2022-07-25T23:04:41.280Z,19.80
2022-07-25T23:07:10.343Z,19.80
2022-07-25T23:09:39.265Z,19.80
2022-07-25T23:12:09.053Z,19.80
2022-07-25T23:14:38.002Z,19.80
2022-07-25T23:17:20.261Z,19.80
2022-07-25T23:19:52.979Z,19.80
2022-07-25T23:22:25.291Z,19.80
2022-07-25T23:24:54.312Z,19.80
2022-07-25T23:27:25.394Z,19.80
2022-07-25T23:29:54.764Z,19.70
2022-07-25T23:32:23.841Z,19.60
2022-07-25T23:34:54.269Z,19.60
2022-07-25T23:37:23.299Z,19.60
2022-07-25T23:39:52.391Z,19.50
2022-07-25T23:42:21.511Z,19.40
2022-07-25T23:44:51.487Z,19.30
2022-07-25T23:47:26.851Z,19.20
2022-07-25T23:50:11.722Z,19.20
2022-07-25T23:52:41.093Z,19.20
2022-07-25T23:55:11.467Z,19.10
2022-07-25T23:57:40.686Z,19.10
